createdAt,value
2022-08-08T00:00:55.238Z,22.96
2022-08-08T00:02:33.501Z,22.97
2022-08-08T00:05:17.542Z,22.95
2022-08-08T00:08:08.141Z,22.94
2022-08-08T00:10:55.282Z,22.94
2022-08-08T00:14:14.972Z,22.94
2022-08-08T00:16:49.501Z,22.94
2022-08-08T00:19:53.111Z,22.95
2022-08-08T00:22:41.278Z,22.96
2022-08-08T00:25:44.989Z,22.95
2022-08-08T00:28:35.457Z,22.94
2022-08-08T00:32:20.845Z,22.93
2022-08-08T00:34:45.991Z,22.92
2022-08-08T00:37:48.057Z,22.87
2022-08-08T00:41:10.273Z,22.84
2022-08-08T00:43:55.985Z,22.81
2022-08-08T00:46:57.198Z,22.80
2022-08-08T00:49:58.887Z,22.78
2022-08-08T00:52:48.868Z,22.80
2022-08-08T00:55:36.246Z,22.79
2022-08-08T00:58:38.018Z,22.76
2022-08-08T01:01:38.151Z,22.75
2022-08-08T01:04:36.246Z,22.74
2022-08-08T01:07:34.559Z,22.73
2022-08-08T01:10:50.740Z,22.73
2022-08-08T01:13:44.349Z,22.72
2022-08-08T01:16:27.916Z,22.71
2022-08-08T01:19:52.096Z,22.70
2022-08-08T01:22:43.743Z,22.69
2022-08-08T01:25:48.300Z,22.68
2022-08-08T01:29:09.511Z,22.72
2022-08-08T01:32:12.760Z,22.73
2022-08-08T01:35:31.849Z,22.75
2022-08-08T01:38:49.289Z,22.77
2022-08-08T01:41:46.919Z,22.77
2022-08-08T01:44:35.498Z,22.73
2022-08-08T01:48:14.356Z,22.67
2022-08-08T01:50:27.017Z,22.63
2022-08-08T01:55:17.849Z,22.50
2022-08-08T01:57:03.788Z,22.35
2022-08-08T02:00:07.824Z,22.30
2022-08-08T02:03:57.458Z,22.25
2022-08-08T02:07:00.842Z,22.23
2022-08-08T02:10:03.658Z,22.20
2022-08-08T02:13:03.831Z,22.14
2022-08-08T02:15:52.982Z,22.08
2022-08-08T02:18:43.463Z,22.04
2022-08-08T02:21:57.050Z,22.02
2022-08-08T02:24:44.732Z,21.97
2022-08-08T02:27:20.288Z,21.93
2022-08-08T02:30:05.806Z,21.91
2022-08-08T02:32:54.063Z,21.89
2022-08-08T02:36:03.704Z,21.87
2022-08-08T02:38:33.129Z,21.85
2022-08-08T02:41:59.157Z,21.84
2022-08-08T02:44:58.825Z,21.86
2022-08-08T02:47:46.761Z,21.87
2022-08-08T02:50:55.543Z,21.83
2022-08-08T02:53:40.035Z,21.78
2022-08-08T02:56:41.654Z,21.73
2022-08-08T02:59:57.497Z,21.71
2022-08-08T03:02:33.329Z,21.69
2022-08-08T03:05:44.800Z,21.66
2022-08-08T03:08:51.976Z,21.65
2022-08-08T03:12:01.114Z,21.61
2022-08-08T03:15:57.766Z,21.57
2022-08-08T03:17:59.836Z,21.53
2022-08-08T03:20:52.261Z,21.49
2022-08-08T03:23:39.592Z,21.44
2022-08-08T03:26:08.702Z,21.41
2022-08-08T03:28:51.256Z,21.37
2022-08-08T03:32:06.058Z,21.33
2022-08-08T03:34:32.666Z,21.29
2022-08-08T03:37:01.875Z,21.27
2022-08-08T03:39:51.563Z,21.27
2022-08-08T03:42:30.770Z,21.20
2022-08-08T03:46:06.213Z,21.20
2022-08-08T03:48:21.404Z,21.23
2022-08-08T03:50:59.442Z,21.29
2022-08-08T03:53:42.239Z,21.32
2022-08-08T03:56:31.561Z,21.36
2022-08-08T03:59:03.797Z,21.40
2022-08-08T04:02:12.539Z,21.45
2022-08-08T04:04:40.546Z,21.52
2022-08-08T04:07:10.786Z,21.57
2022-08-08T04:10:03.225Z,21.63
2022-08-08T04:12:37.606Z,21.69
2022-08-08T04:15:06.655Z,21.77
2022-08-08T04:17:58.310Z,21.81
2022-08-08T04:20:28.816Z,21.85
2022-08-08T04:23:03.446Z,21.88
2022-08-08T04:25:46.135Z,21.89
2022-08-08T04:28:36.289Z,21.93
2022-08-08T04:31:04.781Z,22.00
2022-08-08T04:33:41.501Z,22.02
2022-08-08T04:36:11.341Z,22.05
2022-08-08T04:38:42.249Z,22.08
2022-08-08T04:41:18.103Z,22.13
2022-08-08T04:44:04.406Z,22.17
2022-08-08T04:46:33.188Z,22.23
2022-08-08T04:49:02.480Z,22.26
2022-08-08T04:51:57.018Z,22.29
2022-08-08T04:54:39.510Z,22.34
2022-08-08T04:57:11.289Z,22.39
2022-08-08T05:00:00.370Z,22.44
2022-08-08T05:02:31.673Z,22.48
2022-08-08T05:05:00.695Z,22.50
2022-08-08T05:07:42.542Z,22.54
2022-08-08T05:10:13.217Z,22.59
2022-08-08T05:12:59.908Z,22.63
2022-08-08T05:15:31.404Z,22.70
2022-08-08T05:18:19.481Z,22.76
2022-08-08T05:20:52.184Z,22.84
2022-08-08T05:23:22.316Z,22.88
2022-08-08T05:25:51.690Z,22.92
2022-08-08T05:28:48.078Z,22.97
2022-08-08T05:32:02.132Z,23.02
2022-08-08T05:34:00.079Z,23.09
2022-08-08T05:36:30.982Z,23.14
2022-08-08T05:39:00.530Z,23.18
2022-08-08T05:41:29.013Z,23.20
2022-08-08T05:44:09.687Z,23.21
2022-08-08T05:46:38.854Z,23.22
2022-08-08T05:49:11.024Z,23.23
2022-08-08T05:51:48.940Z,23.23
2022-08-08T05:55:03.257Z,23.33
2022-08-08T05:58:05.335Z,23.46
2022-08-08T06:00:30.263Z,23.56
2022-08-08T06:03:17.503Z,23.69
2022-08-08T06:06:06.730Z,23.83
2022-08-08T06:08:53.038Z,23.95
2022-08-08T06:11:28.217Z,24.05
2022-08-08T06:13:58.050Z,24.14
2022-08-08T06:16:30.443Z,24.22
2022-08-08T06:19:24.062Z,24.34
2022-08-08T06:21:57.056Z,24.44
2022-08-08T06:24:47.047Z,24.58
2022-08-08T06:27:48.107Z,24.78
2022-08-08T06:30:28.817Z,25.03
2022-08-08T06:33:13.255Z,25.27
2022-08-08T06:38:59.355Z,25.66
2022-08-08T06:41:52.437Z,25.80
2022-08-08T06:44:42.539Z,26.00
2022-08-08T06:47:11.908Z,26.18
2022-08-08T06:49:55.274Z,26.26
2022-08-08T06:52:28.189Z,26.37
2022-08-08T06:55:11.635Z,26.48
2022-08-08T06:57:43.975Z,26.56
2022-08-08T07:00:30.312Z,26.70
2022-08-08T07:03:52.623Z,26.89
2022-08-08T07:06:09.472Z,27.01
2022-08-08T07:08:42.010Z,27.10
2022-08-08T07:11:28.752Z,27.21
2022-08-08T07:14:18.278Z,27.30
2022-08-08T07:16:57.935Z,27.42
2022-08-08T07:19:37.579Z,27.52
2022-08-08T07:22:12.190Z,27.60
2022-08-08T07:28:02.432Z,27.60
2022-08-08T07:30:40.348Z,27.65
2022-08-08T07:33:12.034Z,27.70
2022-08-08T07:35:48.500Z,27.75
2022-08-08T07:38:20.939Z,27.82
2022-08-08T07:41:04.330Z,27.86
2022-08-08T07:43:36.919Z,28.00
2022-08-08T07:46:23.755Z,28.10
2022-08-08T07:48:58.805Z,28.11
2022-08-08T07:52:23.420Z,28.17
2022-08-08T07:55:01.821Z,28.17
2022-08-08T07:58:08.606Z,28.21
2022-08-08T08:00:49.776Z,28.24
2022-08-08T08:03:43.747Z,28.30
2022-08-08T08:06:17.208Z,28.38
2022-08-08T08:09:05.662Z,28.42
2022-08-08T08:11:51.427Z,28.44
2022-08-08T08:14:30.631Z,28.44
2022-08-08T08:17:00.953Z,28.48
2022-08-08T08:19:45.732Z,28.49
2022-08-08T08:22:31.490Z,28.58
2022-08-08T08:25:07.717Z,28.65
2022-08-08T08:27:37.610Z,28.79
2022-08-08T08:30:07.614Z,28.92
2022-08-08T08:32:41.000Z,29.07
2022-08-08T08:35:29.524Z,29.25
2022-08-08T08:38:17.306Z,29.48
2022-08-08T08:40:51.655Z,29.63
2022-08-08T08:43:26.979Z,29.74
2022-08-08T08:46:03.326Z,29.84
2022-08-08T08:48:32.808Z,29.90
2022-08-08T08:51:03.386Z,29.96
2022-08-08T08:53:54.526Z,30.04
2022-08-08T08:56:29.475Z,30.12
2022-08-08T08:59:09.062Z,30.17
2022-08-08T09:04:48.217Z,30.24
2022-08-08T09:07:23.644Z,30.30
2022-08-08T09:10:22.992Z,30.33
2022-08-08T09:13:03.115Z,30.35
2022-08-08T09:15:42.313Z,30.38
2022-08-08T09:18:18.114Z,30.39
2022-08-08T09:22:02.792Z,30.42
2022-08-08T09:23:40.562Z,30.52
2022-08-08T09:26:21.530Z,30.69
2022-08-08T09:28:50.859Z,30.85
2022-08-08T09:31:56.711Z,31.08
2022-08-08T09:34:39.004Z,31.34
2022-08-08T09:38:01.062Z,31.70
2022-08-08T09:40:43.260Z,31.95
2022-08-08T09:43:41.294Z,32.15
2022-08-08T09:46:25.491Z,32.35
2022-08-08T09:49:04.248Z,32.50
2022-08-08T09:52:01.983Z,32.65
2022-08-08T09:54:44.808Z,32.62
2022-08-08T09:57:19.440Z,32.80
2022-08-08T10:00:31.311Z,32.95
2022-08-08T10:02:51.992Z,33.06
2022-08-08T10:08:22.520Z,33.27
2022-08-08T10:11:01.960Z,33.28
2022-08-08T10:13:57.763Z,33.30
2022-08-08T10:16:39.632Z,33.30
2022-08-08T10:19:16.824Z,33.23
2022-08-08T10:22:03.830Z,33.16
2022-08-08T10:24:38.073Z,33.08
2022-08-08T10:27:13.694Z,32.99
2022-08-08T10:30:06.877Z,32.97
2022-08-08T10:32:55.320Z,32.94
2022-08-08T10:36:06.674Z,32.77
2022-08-08T10:38:22.841Z,32.41
2022-08-08T10:40:53.708Z,31.86
2022-08-08T10:43:24.784Z,31.61
2022-08-08T10:46:03.397Z,31.36
2022-08-08T10:48:38.831Z,31.05
2022-08-08T10:51:31.479Z,30.78
2022-08-08T10:54:24.964Z,30.64
2022-08-08T10:57:03.961Z,30.41
2022-08-08T10:59:59.867Z,30.18
2022-08-08T11:02:33.065Z,30.00
2022-08-08T11:05:14.671Z,29.86
2022-08-08T11:08:30.955Z,29.75
2022-08-08T11:10:41.277Z,29.58
2022-08-08T11:13:28.482Z,29.41
2022-08-08T11:16:00.665Z,29.06
2022-08-08T11:18:37.441Z,28.29
2022-08-08T11:21:19.347Z,27.65
2022-08-08T11:24:01.977Z,27.45
2022-08-08T11:26:34.541Z,26.92
2022-08-08T11:29:09.556Z,26.71
2022-08-08T11:31:46.986Z,26.45
2022-08-08T11:34:24.449Z,26.39
2022-08-08T11:37:14.818Z,26.36
2022-08-08T11:39:57.415Z,26.33
2022-08-08T11:42:31.053Z,26.26
2022-08-08T11:44:59.827Z,26.17
2022-08-08T11:47:39.651Z,26.14
2022-08-08T11:50:27.371Z,25.99
2022-08-08T11:53:05.811Z,25.79
2022-08-08T11:55:38.892Z,25.70
2022-08-08T12:00:58.574Z,25.57
2022-08-08T12:03:36.940Z,25.54
2022-08-08T12:06:16.568Z,25.45
2022-08-08T12:09:04.752Z,25.35
2022-08-08T12:11:49.479Z,25.18
2022-08-08T12:14:29.309Z,25.16
2022-08-08T12:19:57.147Z,25.03
2022-08-08T12:25:38.279Z,24.61
2022-08-08T12:28:16.412Z,24.58
2022-08-08T12:30:47.755Z,24.56
2022-08-08T12:33:37.871Z,24.53
2022-08-08T12:36:19.879Z,24.51
2022-08-08T12:42:01.633Z,24.46
2022-08-08T12:44:50.453Z,24.38
2022-08-08T12:47:57.843Z,24.32
2022-08-08T12:50:16.899Z,24.20
2022-08-08T12:52:55.965Z,24.17
2022-08-08T12:55:56.474Z,24.09
2022-08-08T12:58:29.492Z,23.97
2022-08-08T13:01:36.938Z,23.71
2022-08-08T13:04:34.313Z,23.32
2022-08-08T13:08:03.762Z,22.70
2022-08-08T13:10:36.652Z,22.32
2022-08-08T13:13:41.988Z,22.08
2022-08-08T13:16:40.387Z,21.91
2022-08-08T13:19:14.043Z,21.96
2022-08-08T13:22:02.606Z,22.05
2022-08-08T13:24:48.733Z,22.17
2022-08-08T13:27:29.729Z,22.34
2022-08-08T13:30:06.327Z,22.46
2022-08-08T13:32:39.548Z,22.58
2022-08-08T13:35:25.094Z,22.68
2022-08-08T13:38:06.966Z,22.83
2022-08-08T13:40:36.223Z,22.98
2022-08-08T13:46:28.584Z,23.20
2022-08-08T13:49:11.194Z,23.30
2022-08-08T13:52:36.008Z,23.39
2022-08-08T13:55:07.643Z,23.44
2022-08-08T13:58:06.309Z,23.48
2022-08-08T14:00:24.979Z,23.55
2022-08-08T14:03:53.442Z,23.57
2022-08-08T14:06:32.306Z,23.56
2022-08-08T14:09:24.550Z,23.53
2022-08-08T14:11:50.885Z,23.59
2022-08-08T14:14:26.338Z,23.61
2022-08-08T14:17:22.527Z,23.71
2022-08-08T14:20:15.692Z,23.75
2022-08-08T14:23:20.690Z,23.76
2022-08-08T14:26:10.653Z,23.78
2022-08-08T14:29:00.224Z,23.81
2022-08-08T14:32:05.903Z,23.81
2022-08-08T14:34:23.087Z,23.78
2022-08-08T14:37:08.189Z,23.80
2022-08-08T14:39:53.724Z,23.75
2022-08-08T14:42:35.216Z,23.71
2022-08-08T14:46:01.899Z,23.69
2022-08-08T14:48:34.331Z,23.66
2022-08-08T14:51:19.967Z,23.66
2022-08-08T14:54:16.174Z,23.64
2022-08-08T14:57:03.901Z,23.62
2022-08-08T14:59:51.447Z,23.73
2022-08-08T15:02:25.545Z,23.75
2022-08-08T15:05:07.956Z,23.77
2022-08-08T15:07:40.499Z,23.71
2022-08-08T15:10:16.499Z,23.73
2022-08-08T15:12:47.773Z,23.78
2022-08-08T15:15:18.648Z,23.85
2022-08-08T15:18:14.422Z,23.89
2022-08-08T15:20:56.050Z,23.90
2022-08-08T15:23:33.329Z,23.96
2022-08-08T15:26:03.561Z,23.95
2022-08-08T15:28:33.554Z,23.86
2022-08-08T15:31:05.573Z,23.79
2022-08-08T15:33:38.733Z,23.81
2022-08-08T15:36:35.417Z,23.82
2022-08-08T15:39:04.537Z,23.75
2022-08-08T15:41:43.640Z,23.76
2022-08-08T15:44:13.947Z,23.70
2022-08-08T15:46:45.591Z,23.68
2022-08-08T15:49:21.234Z,23.62
2022-08-08T15:51:54.560Z,23.62
2022-08-08T15:54:38.865Z,23.61
2022-08-08T15:57:11.349Z,23.64
2022-08-08T16:00:06.046Z,23.57
2022-08-08T16:02:50.407Z,23.54
2022-08-08T16:05:21.583Z,23.49
2022-08-08T16:07:54.114Z,23.47
2022-08-08T16:13:08.805Z,23.41
2022-08-08T16:13:33.576Z,23.35
2022-08-08T16:16:09.196Z,23.38
2022-08-08T16:18:57.038Z,23.33
2022-08-08T16:21:29.576Z,23.34
2022-08-08T16:24:03.054Z,23.35
2022-08-08T16:26:35.823Z,23.35
2022-08-08T16:29:09.721Z,23.33
2022-08-08T16:31:42.199Z,23.32
2022-08-08T16:34:20.822Z,23.30
2022-08-08T16:36:50.433Z,23.35
2022-08-08T16:40:00.342Z,23.40
2022-08-08T16:42:18.182Z,23.47
2022-08-08T16:44:55.163Z,23.42
2022-08-08T16:47:40.228Z,23.36
2022-08-08T16:50:16.199Z,23.39
2022-08-08T16:55:00.058Z,23.37
2022-08-08T16:55:54.938Z,23.33
2022-08-08T16:58:40.243Z,23.37
2022-08-08T17:01:16.234Z,23.42
2022-08-08T17:03:59.149Z,23.48
2022-08-08T17:06:39.765Z,23.56
2022-08-08T17:09:19.541Z,23.66
2022-08-08T17:11:56.618Z,23.74
2022-08-08T17:14:34.292Z,23.79
2022-08-08T17:17:41.899Z,23.82
2022-08-08T17:20:14.228Z,23.86
2022-08-08T17:23:16.609Z,23.82
2022-08-08T17:25:52.067Z,23.79
2022-08-08T17:28:35.343Z,23.76
2022-08-08T17:31:39.603Z,23.76
2022-08-08T17:34:49.366Z,23.75
2022-08-08T17:37:01.126Z,23.67
2022-08-08T17:40:03.062Z,23.57
2022-08-08T17:42:32.184Z,23.51
2022-08-08T17:45:03.160Z,23.43
2022-08-08T17:47:40.321Z,23.36
2022-08-08T17:50:18.399Z,23.31
2022-08-08T17:52:48.008Z,23.28
2022-08-08T17:56:06.065Z,23.24
2022-08-08T17:58:13.287Z,23.19
2022-08-08T18:01:14.709Z,23.14
2022-08-08T18:04:04.849Z,23.05
2022-08-08T18:06:43.084Z,23.01
2022-08-08T18:09:18.243Z,22.99
2022-08-08T18:12:01.364Z,22.96
2022-08-08T18:14:30.822Z,22.93
2022-08-08T18:17:03.452Z,22.90
2022-08-08T18:19:45.775Z,22.86
2022-08-08T18:22:51.376Z,22.82
2022-08-08T18:25:44.086Z,22.76
2022-08-08T18:28:26.003Z,22.71
2022-08-08T18:30:58.788Z,22.61
2022-08-08T18:34:10.655Z,22.51
2022-08-08T18:36:23.443Z,22.44
2022-08-08T18:39:28.349Z,22.37
2022-08-08T18:42:02.861Z,22.31
2022-08-08T18:44:35.814Z,22.28
2022-08-08T18:47:04.493Z,22.21
2022-08-08T18:49:40.717Z,22.11
2022-08-08T18:55:09.716Z,21.92
2022-08-08T18:57:45.314Z,21.85
2022-08-08T19:00:20.236Z,21.78
2022-08-08T19:02:55.759Z,21.70
2022-08-08T19:05:53.932Z,21.63
2022-08-08T19:08:25.175Z,21.57
2022-08-08T19:11:01.238Z,21.49
2022-08-08T19:13:53.808Z,21.45
2022-08-08T19:16:23.638Z,21.43
2022-08-08T19:19:02.453Z,21.42
2022-08-08T19:21:33.788Z,21.45
2022-08-08T19:24:39.358Z,21.40
2022-08-08T19:27:07.540Z,21.37
2022-08-08T19:29:42.179Z,21.34
2022-08-08T19:32:13.258Z,21.27
2022-08-08T19:34:51.515Z,21.21
2022-08-08T19:37:41.774Z,21.16
2022-08-08T19:40:15.864Z,21.10
2022-08-08T19:42:49.420Z,21.07
2022-08-08T19:45:58.161Z,21.02
2022-08-08T19:48:29.186Z,20.92
2022-08-08T19:51:01.506Z,20.86
2022-08-08T19:53:51.864Z,20.78
2022-08-08T19:56:39.478Z,20.69
2022-08-08T19:59:13.024Z,20.61
2022-08-08T20:02:01.910Z,20.57
2022-08-08T20:04:35.872Z,20.51
2022-08-08T20:08:26.958Z,20.43
2022-08-08T20:09:58.574Z,20.38
2022-08-08T20:12:32.342Z,20.35
2022-08-08T20:15:14.561Z,20.30
2022-08-08T20:17:57.424Z,20.25
2022-08-08T20:20:30.271Z,20.20
2022-08-08T20:23:04.318Z,20.13
2022-08-08T20:25:54.432Z,20.07
2022-08-08T20:28:44.519Z,20.05
2022-08-08T20:31:23.078Z,20.02
2022-08-08T20:34:30.484Z,19.98
2022-08-08T20:36:47.969Z,19.96
2022-08-08T20:39:16.303Z,19.94
2022-08-08T20:41:49.060Z,19.93
2022-08-08T20:44:21.546Z,19.91
2022-08-08T20:46:53.492Z,19.88
2022-08-08T20:49:22.046Z,19.87
2022-08-08T20:52:02.021Z,19.86
2022-08-08T20:54:31.245Z,19.85
2022-08-08T20:57:04.651Z,19.76
2022-08-08T20:59:46.869Z,19.63
2022-08-08T21:02:25.635Z,19.56
2022-08-08T21:05:00.744Z,19.51
2022-08-08T21:08:33.824Z,19.48
2022-08-08T21:10:21.017Z,19.48
2022-08-08T21:12:54.166Z,19.46
2022-08-08T21:16:04.100Z,19.36
2022-08-08T21:18:12.807Z,19.31
2022-08-08T21:20:54.312Z,19.26
2022-08-08T21:23:58.524Z,19.24
2022-08-08T21:26:21.027Z,19.27
2022-08-08T21:29:00.823Z,19.26
2022-08-08T21:31:58.516Z,19.25
2022-08-08T21:34:22.015Z,19.28
2022-08-08T21:36:53.921Z,19.30
2022-08-08T21:39:56.762Z,19.33
2022-08-08T21:42:33.936Z,19.34
2022-08-08T21:45:44.268Z,19.30
2022-08-08T21:48:07.692Z,19.27
2022-08-08T21:50:43.122Z,19.28
2022-08-08T21:54:32.114Z,19.28
2022-08-08T21:56:20.159Z,19.28
2022-08-08T21:58:52.821Z,19.30
2022-08-08T22:01:38.977Z,19.31
2022-08-08T22:04:12.801Z,19.29
2022-08-08T22:06:41.424Z,19.31
2022-08-08T22:09:10.903Z,19.33
2022-08-08T22:11:59.144Z,19.34
2022-08-08T22:14:37.336Z,19.38
2022-08-08T22:17:06.285Z,19.42
2022-08-08T22:20:11.429Z,19.42
2022-08-08T22:22:29.133Z,19.43
2022-08-08T22:24:59.033Z,19.43
2022-08-08T22:28:00.908Z,19.43
2022-08-08T22:30:29.762Z,19.43
2022-08-08T22:32:58.658Z,19.43
2022-08-08T22:36:05.510Z,19.43
2022-08-08T22:38:22.469Z,19.44
2022-08-08T22:40:51.279Z,19.42
2022-08-08T22:43:19.593Z,19.41
2022-08-08T22:45:52.785Z,19.39
2022-08-08T22:48:22.483Z,19.38
2022-08-08T22:50:56.455Z,19.38
2022-08-08T22:54:30.207Z,19.36
2022-08-08T22:56:13.264Z,19.34
2022-08-08T22:58:42.723Z,19.31
2022-08-08T23:01:30.247Z,19.28
2022-08-08T23:04:01.713Z,19.26
2022-08-08T23:06:30.302Z,19.24
2022-08-08T23:09:00.254Z,19.21
2022-08-08T23:12:28.705Z,19.18
2022-08-08T23:14:20.521Z,19.16
2022-08-08T23:16:59.223Z,19.14
2022-08-08T23:19:30.600Z,19.10
2022-08-08T23:22:08.172Z,19.07
2022-08-08T23:24:41.567Z,19.07
2022-08-08T23:27:38.117Z,19.07
2022-08-08T23:30:13.551Z,19.08
2022-08-08T23:32:44.166Z,19.09
2022-08-08T23:35:18.657Z,19.08
2022-08-08T23:38:02.937Z,19.06
2022-08-08T23:40:32.504Z,19.01
2022-08-08T23:43:02.760Z,18.99
2022-08-08T23:49:01.454Z,18.99
2022-08-08T23:49:05.810Z,18.99
2022-08-08T23:51:12.491Z,18.97
2022-08-08T23:54:38.960Z,18.94
2022-08-08T23:56:46.871Z,18.92
2022-08-08T23:59:18.245Z,18.93
